createdAt,value
2023-02-11T00:00:19.491Z,29.849
2023-02-11T00:05:16.311Z,29.852
2023-02-11T00:10:19.406Z,29.855
2023-02-11T00:15:19.376Z,29.851
2023-02-11T00:20:19.443Z,29.849
2023-02-11T00:25:16.462Z,29.848
2023-02-11T00:30:19.407Z,29.847
2023-02-11T00:35:19.422Z,29.847
2023-02-11T00:40:19.354Z,29.849
2023-02-11T00:45:19.425Z,29.847
2023-02-11T00:50:19.400Z,29.847
2023-02-11T00:55:16.419Z,29.849
2023-02-11T01:00:19.458Z,29.847
2023-02-11T01:05:19.505Z,29.846
2023-02-11T01:10:16.540Z,29.847
2023-02-11T01:15:16.456Z,29.845
2023-02-11T01:20:19.410Z,29.848
2023-02-11T01:25:16.468Z,29.851
2023-02-11T01:30:19.565Z,29.850
2023-02-11T01:35:19.463Z,29.847
2023-02-11T01:40:16.475Z,29.846
2023-02-11T01:45:19.504Z,29.844
2023-02-11T01:50:16.482Z,29.839
2023-02-11T01:55:19.493Z,29.841
2023-02-11T02:00:16.455Z,29.843
2023-02-11T02:05:16.451Z,29.843
2023-02-11T02:10:16.502Z,29.845
2023-02-11T02:15:19.524Z,29.845
2023-02-11T02:20:19.535Z,29.847
2023-02-11T02:25:19.480Z,29.851
2023-02-11T02:30:19.430Z,29.857
2023-02-11T02:35:19.454Z,29.860
2023-02-11T02:40:19.507Z,29.862
2023-02-11T02:45:19.442Z,29.865
2023-02-11T02:50:16.503Z,29.870
2023-02-11T02:55:19.677Z,29.874
2023-02-11T03:00:19.512Z,29.877
2023-02-11T03:05:16.526Z,29.882
2023-02-11T03:10:19.491Z,29.883
2023-02-11T03:15:19.636Z,29.881
2023-02-11T03:20:16.538Z,29.874
2023-02-11T03:25:16.564Z,29.876
2023-02-11T03:30:19.614Z,29.876
2023-02-11T03:35:19.506Z,29.874
2023-02-11T03:40:19.536Z,29.872
2023-02-11T03:45:16.574Z,29.870
2023-02-11T03:50:19.536Z,29.872
2023-02-11T03:55:19.516Z,29.874
2023-02-11T04:00:19.507Z,29.870
2023-02-11T04:05:19.670Z,29.871
2023-02-11T04:10:19.519Z,29.867
2023-02-11T04:15:16.570Z,29.869
2023-02-11T04:20:19.552Z,29.874
2023-02-11T04:25:19.514Z,29.872
2023-02-11T04:30:19.564Z,29.874
2023-02-11T04:35:16.548Z,29.875
2023-02-11T04:40:19.599Z,29.875
2023-02-11T04:45:19.508Z,29.874
2023-02-11T04:50:19.526Z,29.874
2023-02-11T04:55:19.585Z,29.878
2023-02-11T05:00:15.813Z,29.875
2023-02-11T05:05:18.895Z,29.874
2023-02-11T05:10:18.872Z,29.870
2023-02-11T05:15:18.883Z,29.864
2023-02-11T05:20:15.846Z,29.861
2023-02-11T05:25:18.817Z,29.854
2023-02-11T05:30:15.793Z,29.853
2023-02-11T05:35:18.899Z,29.855
2023-02-11T05:40:15.823Z,29.850
2023-02-11T05:45:15.871Z,29.847
2023-02-11T05:50:16.936Z,29.850
2023-02-11T05:55:18.819Z,29.851
2023-02-11T06:00:15.890Z,29.853
2023-02-11T06:05:18.832Z,29.856
2023-02-11T06:10:18.870Z,29.857
2023-02-11T06:15:18.801Z,29.857
2023-02-11T06:20:18.941Z,29.859
2023-02-11T06:25:18.792Z,29.859
2023-02-11T06:30:18.794Z,29.865
2023-02-11T06:35:18.872Z,29.867
2023-02-11T06:40:18.818Z,29.870
2023-02-11T06:45:18.954Z,29.872
2023-02-11T06:50:18.867Z,29.876
2023-02-11T06:55:18.818Z,29.880
2023-02-11T07:00:18.818Z,29.881
2023-02-11T07:05:18.833Z,29.877
2023-02-11T07:10:18.816Z,29.877
2023-02-11T07:15:18.947Z,29.877
2023-02-11T07:20:18.865Z,29.881
2023-02-11T07:25:15.891Z,29.882
2023-02-11T07:30:15.729Z,29.883
2023-02-11T07:35:18.872Z,29.884
2023-02-11T07:40:18.950Z,29.886
2023-02-11T07:45:15.948Z,29.893
2023-02-11T07:50:18.918Z,29.897
2023-02-11T07:55:15.932Z,29.897
2023-02-11T08:00:21.123Z,29.898
2023-02-11T08:05:18.872Z,29.896
2023-02-11T08:10:15.946Z,29.903
2023-02-11T08:15:18.902Z,29.913
2023-02-11T08:20:18.923Z,29.906
2023-02-11T08:25:15.930Z,29.902
2023-02-11T08:30:18.904Z,29.906
2023-02-11T08:35:18.993Z,29.904
2023-02-11T08:40:18.897Z,29.912
2023-02-11T08:45:15.956Z,29.914
2023-02-11T08:50:15.979Z,29.912
2023-02-11T08:55:18.952Z,29.915
2023-02-11T09:00:18.932Z,29.914
2023-02-11T09:05:18.894Z,29.915
2023-02-11T09:10:18.962Z,29.922
2023-02-11T09:15:18.937Z,29.919
2023-02-11T09:20:18.938Z,29.921
2023-02-11T09:25:18.983Z,29.924
2023-02-11T09:30:18.921Z,29.929
2023-02-11T09:35:15.964Z,29.924
2023-02-11T09:40:16.030Z,29.929
2023-02-11T09:45:19.059Z,29.927
2023-02-11T09:50:15.967Z,29.935
2023-02-11T09:55:16.027Z,29.933
2023-02-11T10:00:19.030Z,29.936
2023-02-11T10:05:18.958Z,29.937
2023-02-11T10:10:19.000Z,29.931
2023-02-11T10:15:18.962Z,29.941
2023-02-11T10:20:19.089Z,29.941
2023-02-11T10:25:16.044Z,29.941
2023-02-11T10:30:19.002Z,29.947
2023-02-11T10:35:18.993Z,29.948
2023-02-11T10:40:16.039Z,29.951
2023-02-11T10:45:19.064Z,29.957
2023-02-11T10:50:16.044Z,29.959
2023-02-11T10:55:16.132Z,29.963
2023-02-11T11:00:16.042Z,29.967
2023-02-11T11:05:19.036Z,29.968
2023-02-11T11:10:19.052Z,29.976
2023-02-11T11:15:18.999Z,29.980
2023-02-11T11:20:16.028Z,29.985
2023-02-11T11:25:16.036Z,29.990
2023-02-11T11:30:19.106Z,29.994
2023-02-11T11:35:16.048Z,29.999
2023-02-11T11:40:18.991Z,30.002
2023-02-11T11:45:18.961Z,30.004
2023-02-11T11:50:21.107Z,30.008
2023-02-11T11:55:18.985Z,30.013
2023-02-11T12:00:16.046Z,30.017
2023-02-11T12:05:16.068Z,30.022
2023-02-11T12:10:19.025Z,30.025
2023-02-11T12:15:18.978Z,30.027
2023-02-11T12:20:19.080Z,30.032
2023-02-11T12:25:19.023Z,30.037
2023-02-11T12:30:19.118Z,30.040
2023-02-11T12:35:19.026Z,30.046
2023-02-11T12:40:16.036Z,30.046
2023-02-11T12:45:19.037Z,30.053
2023-02-11T12:50:16.138Z,30.058
2023-02-11T12:55:19.058Z,30.064
2023-02-11T13:00:19.029Z,30.067
2023-02-11T13:05:19.014Z,30.071
2023-02-11T13:10:19.172Z,30.071
2023-02-11T13:15:19.013Z,30.077
2023-02-11T13:20:19.127Z,30.073
2023-02-11T13:25:16.038Z,30.073
2023-02-11T13:30:16.105Z,30.080
2023-02-11T13:35:19.115Z,30.086
2023-02-11T13:40:16.136Z,30.088
2023-02-11T13:45:16.217Z,30.090
2023-02-11T13:50:19.051Z,30.093
2023-02-11T13:55:19.046Z,30.091
2023-02-11T14:00:19.061Z,30.094
2023-02-11T14:05:16.088Z,30.099
2023-02-11T14:10:19.141Z,30.104
2023-02-11T14:15:19.044Z,30.108
2023-02-11T14:20:16.101Z,30.112
2023-02-11T14:25:19.090Z,30.115
2023-02-11T14:30:19.136Z,30.119
2023-02-11T14:35:19.106Z,30.120
2023-02-11T14:40:19.128Z,30.116
2023-02-11T14:45:16.080Z,30.116
2023-02-11T14:50:16.270Z,30.113
2023-02-11T14:55:19.152Z,30.118
2023-02-11T15:00:16.214Z,30.123
2023-02-11T15:05:19.201Z,30.124
2023-02-11T15:10:19.140Z,30.128
2023-02-11T15:15:19.126Z,30.127
2023-02-11T15:20:16.171Z,30.131
2023-02-11T15:25:19.399Z,30.132
2023-02-11T15:30:19.114Z,30.135
2023-02-11T15:35:19.117Z,30.139
2023-02-11T15:40:19.141Z,30.142
2023-02-11T15:45:19.162Z,30.149
2023-02-11T15:50:19.178Z,30.145
2023-02-11T15:55:19.240Z,30.142
2023-02-11T16:00:16.257Z,30.144
2023-02-11T16:05:16.006Z,30.144
2023-02-11T16:10:16.195Z,30.152
2023-02-11T16:15:16.209Z,30.150
2023-02-11T16:20:16.219Z,30.147
2023-02-11T16:25:18.889Z,30.153
2023-02-11T16:30:19.313Z,30.157
2023-02-11T16:35:19.197Z,30.157
2023-02-11T16:40:19.111Z,30.161
2023-02-11T16:45:16.216Z,30.160
2023-02-11T16:50:19.286Z,30.161
2023-02-11T16:55:20.881Z,30.158
2023-02-11T17:00:16.416Z,30.157
2023-02-11T17:05:19.299Z,30.148
2023-02-11T17:10:19.198Z,30.145
2023-02-11T17:15:16.184Z,30.150
2023-02-11T17:20:19.269Z,30.151
2023-02-11T17:25:19.170Z,30.154
2023-02-11T17:30:16.330Z,30.155
2023-02-11T17:35:19.220Z,30.157
2023-02-11T17:40:16.419Z,30.162
2023-02-11T17:45:16.225Z,30.164
2023-02-11T17:50:19.230Z,30.165
2023-02-11T17:55:19.180Z,30.160
2023-02-11T18:00:16.242Z,30.157
2023-02-11T18:05:19.416Z,30.157
2023-02-11T18:10:19.376Z,30.161
2023-02-11T18:15:19.225Z,30.158
2023-02-11T18:20:19.222Z,30.155
2023-02-11T18:25:16.247Z,30.163
2023-02-11T18:30:19.209Z,30.163
2023-02-11T18:35:16.238Z,30.162
2023-02-11T18:40:19.198Z,30.161
2023-02-11T18:45:16.223Z,30.165
2023-02-11T18:50:16.263Z,30.168
2023-02-11T18:55:21.371Z,30.170
2023-02-11T19:00:19.272Z,30.171
2023-02-11T19:05:16.277Z,30.173
2023-02-11T19:10:19.357Z,30.177
2023-02-11T19:15:16.354Z,30.174
2023-02-11T19:20:16.246Z,30.176
2023-02-11T19:25:16.335Z,30.175
2023-02-11T19:30:19.245Z,30.179
2023-02-11T19:35:16.272Z,30.180
2023-02-11T19:40:19.243Z,30.179
2023-02-11T19:45:16.373Z,30.176
2023-02-11T19:50:16.279Z,30.173
2023-02-11T19:55:19.318Z,30.171
2023-02-11T20:00:19.306Z,30.172
2023-02-11T20:05:19.284Z,30.169
2023-02-11T20:10:19.251Z,30.169
2023-02-11T20:15:16.331Z,30.169
2023-02-11T20:20:19.426Z,30.169
2023-02-11T20:25:16.316Z,30.168
2023-02-11T20:30:19.253Z,30.169
2023-02-11T20:35:16.355Z,30.169
2023-02-11T20:40:19.326Z,30.169
2023-02-11T20:45:16.317Z,30.171
2023-02-11T20:50:19.454Z,30.172
2023-02-11T20:55:19.313Z,30.175
2023-02-11T21:00:16.315Z,30.173
2023-02-11T21:05:19.373Z,30.172
2023-02-11T21:10:19.311Z,30.176
2023-02-11T21:15:19.284Z,30.177
2023-02-11T21:20:16.479Z,30.179
2023-02-11T21:25:19.327Z,30.182
2023-02-11T21:30:19.430Z,30.185
2023-02-11T21:35:16.324Z,30.186
2023-02-11T21:40:16.355Z,30.188
2023-02-11T21:45:19.402Z,30.187
2023-02-11T21:50:19.339Z,30.194
2023-02-11T21:55:19.401Z,30.195
2023-02-11T22:00:16.418Z,30.197
2023-02-11T22:05:19.440Z,30.198
2023-02-11T22:10:19.329Z,30.201
2023-02-11T22:15:19.329Z,30.202
2023-02-11T22:20:19.329Z,30.205
2023-02-11T22:25:19.298Z,30.206
2023-02-11T22:30:19.445Z,30.208
2023-02-11T22:35:16.216Z,30.209
2023-02-11T22:40:16.545Z,30.210
2023-02-11T22:45:19.416Z,30.214
2023-02-11T22:50:16.413Z,30.218
2023-02-11T22:55:16.429Z,30.218
2023-02-11T23:00:19.389Z,30.219
2023-02-11T23:05:19.351Z,30.217
2023-02-11T23:10:19.450Z,30.217
2023-02-11T23:15:19.390Z,30.218
2023-02-11T23:20:19.402Z,30.217
2023-02-11T23:25:16.365Z,30.217
2023-02-11T23:30:19.418Z,30.219
2023-02-11T23:35:19.338Z,30.215
2023-02-11T23:40:16.405Z,30.216
2023-02-11T23:45:19.560Z,30.215
2023-02-11T23:50:16.428Z,30.213
2023-02-11T23:55:19.428Z,30.213
